sensor_id;sensor_type;location;lat;lon;timestamp;temperature;humidity
25983;DHT22;13773;48.868;10.730;2023-06-10T00:00:35;16.40;99.90
25983;DHT22;13773;48.868;10.730;2023-06-10T00:03:01;16.30;99.90
25983;DHT22;13773;48.868;10.730;2023-06-10T00:05:27;16.30;99.90
25983;DHT22;13773;48.868;10.730;2023-06-10T00:07:55;16.30;99.90
25983;DHT22;13773;48.868;10.730;2023-06-10T00:10:22;16.30;99.90
25983;DHT22;13773;48.868;10.730;2023-06-10T00:12:48;16.20;99.90
25983;DHT22;13773;48.868;10.730;2023-06-10T00:15:13;16.20;99.90
25983;DHT22;13773;48.868;10.730;2023-06-10T00:17:39;16.10;99.90
25983;DHT22;13773;48.868;10.730;2023-06-10T00:20:09;16.10;99.90
25983;DHT22;13773;48.868;10.730;2023-06-10T00:22:37;16.10;99.90
25983;DHT22;13773;48.868;10.730;2023-06-10T00:25:05;17.90;99.90
25983;DHT22;13773;48.868;10.730;2023-06-10T00:27:32;16.10;99.90
25983;DHT22;13773;48.868;10.730;2023-06-10T00:30:04;16.10;99.90
25983;DHT22;13773;48.868;10.730;2023-06-10T00:32:35;16.00;99.90
25983;DHT22;13773;48.868;10.730;2023-06-10T00:35:01;16.10;99.90
25983;DHT22;13773;48.868;10.730;2023-06-10T00:37:27;16.00;99.90
25983;DHT22;13773;48.868;10.730;2023-06-10T00:39:54;16.00;99.90
25983;DHT22;13773;48.868;10.730;2023-06-10T00:42:20;16.00;99.90
25983;DHT22;13773;48.868;10.730;2023-06-10T00:44:47;15.90;99.90
25983;DHT22;13773;48.868;10.730;2023-06-10T00:47:13;15.90;99.90
25983;DHT22;13773;48.868;10.730;2023-06-10T00:49:40;15.90;99.90
25983;DHT22;13773;48.868;10.730;2023-06-10T00:52:06;15.90;99.90
25983;DHT22;13773;48.868;10.730;2023-06-10T00:54:33;15.90;99.90
25983;DHT22;13773;48.868;10.730;2023-06-10T00:57:01;15.90;99.90
25983;DHT22;13773;48.868;10.730;2023-06-10T00:59:30;15.80;99.90
25983;DHT22;13773;48.868;10.730;2023-06-10T01:01:57;15.80;99.90
25983;DHT22;13773;48.868;10.730;2023-06-10T01:04:22;15.80;99.90
25983;DHT22;13773;48.868;10.730;2023-06-10T01:07:05;15.80;99.90
25983;DHT22;13773;48.868;10.730;2023-06-10T01:12:58;15.70;99.90
25983;DHT22;13773;48.868;10.730;2023-06-10T01:15:25;15.70;99.90
25983;DHT22;13773;48.868;10.730;2023-06-10T01:18:01;15.70;99.90
25983;DHT22;13773;48.868;10.730;2023-06-10T01:20:28;15.70;99.90
25983;DHT22;13773;48.868;10.730;2023-06-10T01:22:55;15.60;99.90
25983;DHT22;13773;48.868;10.730;2023-06-10T01:25:23;15.70;99.90
25983;DHT22;13773;48.868;10.730;2023-06-10T01:28:19;15.70;99.90
25983;DHT22;13773;48.868;10.730;2023-06-10T01:33:36;15.60;99.90
25983;DHT22;13773;48.868;10.730;2023-06-10T01:36:03;15.60;99.90
25983;DHT22;13773;48.868;10.730;2023-06-10T01:38:36;15.50;99.90
25983;DHT22;13773;48.868;10.730;2023-06-10T01:41:05;15.50;99.90
25983;DHT22;13773;48.868;10.730;2023-06-10T01:43:34;15.40;99.90
25983;DHT22;13773;48.868;10.730;2023-06-10T01:46:01;15.40;99.90
25983;DHT22;13773;48.868;10.730;2023-06-10T01:48:27;15.40;99.90
25983;DHT22;13773;48.868;10.730;2023-06-10T01:50:52;15.30;99.90
25983;DHT22;13773;48.868;10.730;2023-06-10T01:53:19;15.30;99.90
25983;DHT22;13773;48.868;10.730;2023-06-10T01:55:44;15.30;99.90
25983;DHT22;13773;48.868;10.730;2023-06-10T01:58:10;15.30;99.90
25983;DHT22;13773;48.868;10.730;2023-06-10T02:00:36;15.20;99.90
25983;DHT22;13773;48.868;10.730;2023-06-10T02:03:01;15.20;99.90
25983;DHT22;13773;48.868;10.730;2023-06-10T02:05:27;15.20;99.90
25983;DHT22;13773;48.868;10.730;2023-06-10T02:07:53;15.20;99.90
25983;DHT22;13773;48.868;10.730;2023-06-10T02:10:18;15.20;99.90
25983;DHT22;13773;48.868;10.730;2023-06-10T02:12:44;15.20;99.90
25983;DHT22;13773;48.868;10.730;2023-06-10T02:15:10;15.20;99.90
25983;DHT22;13773;48.868;10.730;2023-06-10T02:17:35;15.20;99.90
25983;DHT22;13773;48.868;10.730;2023-06-10T02:20:02;15.20;99.90
25983;DHT22;13773;48.868;10.730;2023-06-10T02:22:32;15.20;99.90
25983;DHT22;13773;48.868;10.730;2023-06-10T02:24:58;15.20;99.90
25983;DHT22;13773;48.868;10.730;2023-06-10T02:27:24;15.20;99.90
25983;DHT22;13773;48.868;10.730;2023-06-10T02:29:50;15.20;99.90
25983;DHT22;13773;48.868;10.730;2023-06-10T02:32:15;15.20;99.90
25983;DHT22;13773;48.868;10.730;2023-06-10T02:34:42;15.20;99.90
25983;DHT22;13773;48.868;10.730;2023-06-10T02:37:08;15.20;99.90
25983;DHT22;13773;48.868;10.730;2023-06-10T02:39:34;15.10;99.90
25983;DHT22;13773;48.868;10.730;2023-06-10T02:42:00;15.20;99.90
25983;DHT22;13773;48.868;10.730;2023-06-10T02:44:25;15.20;99.90
25983;DHT22;13773;48.868;10.730;2023-06-10T02:46:51;15.20;99.90
25983;DHT22;13773;48.868;10.730;2023-06-10T02:49:17;15.20;99.90
25983;DHT22;13773;48.868;10.730;2023-06-10T02:51:42;15.20;99.90
25983;DHT22;13773;48.868;10.730;2023-06-10T02:54:08;15.20;99.90
25983;DHT22;13773;48.868;10.730;2023-06-10T02:56:34;15.30;99.90
25983;DHT22;13773;48.868;10.730;2023-06-10T02:59:00;15.20;99.90
25983;DHT22;13773;48.868;10.730;2023-06-10T03:01:26;15.20;99.90
25983;DHT22;13773;48.868;10.730;2023-06-10T03:03:52;15.10;99.90
25983;DHT22;13773;48.868;10.730;2023-06-10T03:06:18;15.20;99.90
25983;DHT22;13773;48.868;10.730;2023-06-10T03:08:44;15.20;99.90
25983;DHT22;13773;48.868;10.730;2023-06-10T03:11:11;15.20;99.90
25983;DHT22;13773;48.868;10.730;2023-06-10T03:13:38;15.10;99.90
25983;DHT22;13773;48.868;10.730;2023-06-10T03:16:04;15.20;99.90
25983;DHT22;13773;48.868;10.730;2023-06-10T03:18:30;15.20;99.90
25983;DHT22;13773;48.868;10.730;2023-06-10T03:20:56;15.20;99.90
25983;DHT22;13773;48.868;10.730;2023-06-10T03:23:22;15.30;99.90
25983;DHT22;13773;48.868;10.730;2023-06-10T03:25:48;15.30;99.90
25983;DHT22;13773;48.868;10.730;2023-06-10T03:28:14;15.40;99.90
25983;DHT22;13773;48.868;10.730;2023-06-10T03:30:40;15.20;99.90
25983;DHT22;13773;48.868;10.730;2023-06-10T03:33:05;15.20;99.90
25983;DHT22;13773;48.868;10.730;2023-06-10T03:35:31;15.20;99.90
25983;DHT22;13773;48.868;10.730;2023-06-10T03:37:58;15.10;99.90
25983;DHT22;13773;48.868;10.730;2023-06-10T03:40:24;15.20;99.90
25983;DHT22;13773;48.868;10.730;2023-06-10T03:42:50;15.20;99.90
25983;DHT22;13773;48.868;10.730;2023-06-10T03:45:16;15.30;99.90
25983;DHT22;13773;48.868;10.730;2023-06-10T03:47:41;15.30;99.90
25983;DHT22;13773;48.868;10.730;2023-06-10T03:50:08;15.40;99.90
25983;DHT22;13773;48.868;10.730;2023-06-10T03:52:35;15.40;99.90
25983;DHT22;13773;48.868;10.730;2023-06-10T03:55:01;15.40;99.90
25983;DHT22;13773;48.868;10.730;2023-06-10T03:57:26;15.40;99.90
25983;DHT22;13773;48.868;10.730;2023-06-10T03:59:52;15.30;99.90
25983;DHT22;13773;48.868;10.730;2023-06-10T04:02:18;15.30;99.90
25983;DHT22;13773;48.868;10.730;2023-06-10T04:04:44;15.30;99.90
25983;DHT22;13773;48.868;10.730;2023-06-10T04:07:10;15.30;99.90
25983;DHT22;13773;48.868;10.730;2023-06-10T04:09:36;15.40;99.90
25983;DHT22;13773;48.868;10.730;2023-06-10T04:12:02;15.40;99.90
25983;DHT22;13773;48.868;10.730;2023-06-10T04:14:31;15.40;99.90
25983;DHT22;13773;48.868;10.730;2023-06-10T04:16:57;15.50;99.90
25983;DHT22;13773;48.868;10.730;2023-06-10T04:19:23;15.50;99.90
25983;DHT22;13773;48.868;10.730;2023-06-10T04:21:48;15.60;99.90
25983;DHT22;13773;48.868;10.730;2023-06-10T04:24:14;15.60;99.90
25983;DHT22;13773;48.868;10.730;2023-06-10T04:26:39;15.60;99.90
25983;DHT22;13773;48.868;10.730;2023-06-10T04:29:05;15.60;99.90
25983;DHT22;13773;48.868;10.730;2023-06-10T04:31:31;15.70;99.90
25983;DHT22;13773;48.868;10.730;2023-06-10T04:33:57;15.70;99.90
25983;DHT22;13773;48.868;10.730;2023-06-10T04:36:23;15.70;99.90
25983;DHT22;13773;48.868;10.730;2023-06-10T04:38:49;15.60;99.90
25983;DHT22;13773;48.868;10.730;2023-06-10T04:41:16;15.60;99.90
25983;DHT22;13773;48.868;10.730;2023-06-10T04:43:42;15.60;99.90
25983;DHT22;13773;48.868;10.730;2023-06-10T04:46:08;15.70;99.90
25983;DHT22;13773;48.868;10.730;2023-06-10T04:48:33;15.70;99.90
25983;DHT22;13773;48.868;10.730;2023-06-10T04:51:01;15.80;99.90
25983;DHT22;13773;48.868;10.730;2023-06-10T04:53:26;15.70;99.90
25983;DHT22;13773;48.868;10.730;2023-06-10T04:55:54;15.80;99.90
25983;DHT22;13773;48.868;10.730;2023-06-10T04:58:19;15.80;99.90
25983;DHT22;13773;48.868;10.730;2023-06-10T05:00:45;15.90;99.90
25983;DHT22;13773;48.868;10.730;2023-06-10T05:03:11;16.10;99.90
25983;DHT22;13773;48.868;10.730;2023-06-10T05:05:36;16.20;99.90
25983;DHT22;13773;48.868;10.730;2023-06-10T05:08:02;16.60;99.90
25983;DHT22;13773;48.868;10.730;2023-06-10T05:10:28;16.80;99.90
25983;DHT22;13773;48.868;10.730;2023-06-10T05:12:57;16.90;99.90
25983;DHT22;13773;48.868;10.730;2023-06-10T05:15:23;17.40;99.90
25983;DHT22;13773;48.868;10.730;2023-06-10T05:17:49;18.00;99.90
25983;DHT22;13773;48.868;10.730;2023-06-10T05:20:15;19.10;99.90
25983;DHT22;13773;48.868;10.730;2023-06-10T05:22:41;20.50;99.90
25983;DHT22;13773;48.868;10.730;2023-06-10T05:25:07;21.70;99.90
25983;DHT22;13773;48.868;10.730;2023-06-10T05:27:33;22.90;99.90
25983;DHT22;13773;48.868;10.730;2023-06-10T05:29:59;23.20;99.90
25983;DHT22;13773;48.868;10.730;2023-06-10T05:32:24;23.70;99.90
25983;DHT22;13773;48.868;10.730;2023-06-10T05:34:50;23.40;99.90
25983;DHT22;13773;48.868;10.730;2023-06-10T05:37:16;24.10;99.90
25983;DHT22;13773;48.868;10.730;2023-06-10T05:39:41;23.60;99.90
25983;DHT22;13773;48.868;10.730;2023-06-10T05:42:08;23.70;99.90
25983;DHT22;13773;48.868;10.730;2023-06-10T05:44:34;24.30;99.90
25983;DHT22;13773;48.868;10.730;2023-06-10T05:47:00;24.90;99.90
25983;DHT22;13773;48.868;10.730;2023-06-10T05:49:25;25.40;99.90
25983;DHT22;13773;48.868;10.730;2023-06-10T05:51:51;24.00;99.90
25983;DHT22;13773;48.868;10.730;2023-06-10T05:54:18;24.10;99.90
25983;DHT22;13773;48.868;10.730;2023-06-10T05:56:44;23.90;99.90
25983;DHT22;13773;48.868;10.730;2023-06-10T05:59:10;23.40;99.90
25983;DHT22;13773;48.868;10.730;2023-06-10T06:01:35;23.40;99.90
25983;DHT22;13773;48.868;10.730;2023-06-10T06:04:01;22.90;99.90
25983;DHT22;13773;48.868;10.730;2023-06-10T06:06:27;24.10;99.90
25983;DHT22;13773;48.868;10.730;2023-06-10T06:08:53;24.50;99.90
25983;DHT22;13773;48.868;10.730;2023-06-10T06:11:18;24.50;99.90
25983;DHT22;13773;48.868;10.730;2023-06-10T06:13:44;25.00;99.90
25983;DHT22;13773;48.868;10.730;2023-06-10T06:16:11;25.30;99.90
25983;DHT22;13773;48.868;10.730;2023-06-10T06:18:37;25.00;99.90
25983;DHT22;13773;48.868;10.730;2023-06-10T06:21:02;25.40;99.90
25983;DHT22;13773;48.868;10.730;2023-06-10T06:23:28;25.60;99.90
25983;DHT22;13773;48.868;10.730;2023-06-10T06:25:54;24.50;99.90
25983;DHT22;13773;48.868;10.730;2023-06-10T06:28:19;24.90;99.90
25983;DHT22;13773;48.868;10.730;2023-06-10T06:30:47;24.00;99.90
25983;DHT22;13773;48.868;10.730;2023-06-10T06:33:13;24.80;99.90
25983;DHT22;13773;48.868;10.730;2023-06-10T06:35:39;25.50;99.90
25983;DHT22;13773;48.868;10.730;2023-06-10T06:38:05;25.10;99.90
25983;DHT22;13773;48.868;10.730;2023-06-10T06:40:31;24.80;99.90
25983;DHT22;13773;48.868;10.730;2023-06-10T06:42:57;25.50;99.90
25983;DHT22;13773;48.868;10.730;2023-06-10T06:45:22;26.50;99.90
25983;DHT22;13773;48.868;10.730;2023-06-10T06:47:48;26.00;99.90
25983;DHT22;13773;48.868;10.730;2023-06-10T06:50:14;26.80;99.90
25983;DHT22;13773;48.868;10.730;2023-06-10T06:52:40;24.60;99.90
25983;DHT22;13773;48.868;10.730;2023-06-10T06:55:05;23.80;99.90
25983;DHT22;13773;48.868;10.730;2023-06-10T06:57:31;23.70;99.90
25983;DHT22;13773;48.868;10.730;2023-06-10T06:59:57;22.60;99.90
25983;DHT22;13773;48.868;10.730;2023-06-10T07:02:23;23.70;99.90
25983;DHT22;13773;48.868;10.730;2023-06-10T07:04:49;25.20;99.90
25983;DHT22;13773;48.868;10.730;2023-06-10T07:07:15;24.60;99.90
25983;DHT22;13773;48.868;10.730;2023-06-10T07:09:41;24.90;99.90
25983;DHT22;13773;48.868;10.730;2023-06-10T07:12:07;24.30;99.90
25983;DHT22;13773;48.868;10.730;2023-06-10T07:14:33;23.10;99.90
25983;DHT22;13773;48.868;10.730;2023-06-10T07:16:58;23.80;99.90
25983;DHT22;13773;48.868;10.730;2023-06-10T07:19:24;24.00;99.90
25983;DHT22;13773;48.868;10.730;2023-06-10T07:21:50;23.20;99.90
25983;DHT22;13773;48.868;10.730;2023-06-10T07:24:16;23.40;99.90
25983;DHT22;13773;48.868;10.730;2023-06-10T07:26:41;22.90;99.90
25983;DHT22;13773;48.868;10.730;2023-06-10T07:29:07;22.90;99.90
25983;DHT22;13773;48.868;10.730;2023-06-10T07:31:33;23.60;99.90
25983;DHT22;13773;48.868;10.730;2023-06-10T07:33:59;23.30;99.90
25983;DHT22;13773;48.868;10.730;2023-06-10T07:36:24;22.30;99.90
25983;DHT22;13773;48.868;10.730;2023-06-10T07:38:53;22.10;99.90
25983;DHT22;13773;48.868;10.730;2023-06-10T07:41:19;22.20;99.90
25983;DHT22;13773;48.868;10.730;2023-06-10T07:43:45;22.50;99.90
25983;DHT22;13773;48.868;10.730;2023-06-10T07:46:10;22.70;99.90
25983;DHT22;13773;48.868;10.730;2023-06-10T07:48:36;23.30;99.90
25983;DHT22;13773;48.868;10.730;2023-06-10T07:51:02;23.10;99.90
25983;DHT22;13773;48.868;10.730;2023-06-10T07:53:27;22.90;99.90
25983;DHT22;13773;48.868;10.730;2023-06-10T07:55:53;23.60;99.90
25983;DHT22;13773;48.868;10.730;2023-06-10T07:58:19;22.80;99.90
25983;DHT22;13773;48.868;10.730;2023-06-10T08:00:46;22.90;99.90
25983;DHT22;13773;48.868;10.730;2023-06-10T08:03:11;22.70;99.90
25983;DHT22;13773;48.868;10.730;2023-06-10T08:05:38;22.80;99.90
25983;DHT22;13773;48.868;10.730;2023-06-10T08:08:04;22.70;99.90
25983;DHT22;13773;48.868;10.730;2023-06-10T08:10:30;22.70;99.90
25983;DHT22;13773;48.868;10.730;2023-06-10T08:12:59;22.60;99.90
25983;DHT22;13773;48.868;10.730;2023-06-10T08:15:25;22.60;99.90
25983;DHT22;13773;48.868;10.730;2023-06-10T08:17:50;22.20;99.90
25983;DHT22;13773;48.868;10.730;2023-06-10T08:20:17;22.50;99.90
25983;DHT22;13773;48.868;10.730;2023-06-10T08:22:43;22.80;99.90
25983;DHT22;13773;48.868;10.730;2023-06-10T08:25:09;23.10;99.90
25983;DHT22;13773;48.868;10.730;2023-06-10T08:27:35;23.10;99.90
25983;DHT22;13773;48.868;10.730;2023-06-10T08:30:01;23.50;99.90
25983;DHT22;13773;48.868;10.730;2023-06-10T08:32:26;23.40;99.90
25983;DHT22;13773;48.868;10.730;2023-06-10T08:34:52;23.10;99.90
25983;DHT22;13773;48.868;10.730;2023-06-10T08:37:18;23.40;99.90
25983;DHT22;13773;48.868;10.730;2023-06-10T08:39:43;23.50;99.90
25983;DHT22;13773;48.868;10.730;2023-06-10T08:42:28;23.70;99.90
25983;DHT22;13773;48.868;10.730;2023-06-10T08:45:00;24.00;99.90
25983;DHT22;13773;48.868;10.730;2023-06-10T08:47:29;23.60;99.90
25983;DHT22;13773;48.868;10.730;2023-06-10T08:49:56;23.30;99.90
25983;DHT22;13773;48.868;10.730;2023-06-10T08:52:29;23.20;99.90
25983;DHT22;13773;48.868;10.730;2023-06-10T08:55:04;23.70;99.90
25983;DHT22;13773;48.868;10.730;2023-06-10T08:57:31;23.70;99.90
25983;DHT22;13773;48.868;10.730;2023-06-10T08:59:57;23.80;99.90
25983;DHT22;13773;48.868;10.730;2023-06-10T09:02:27;24.40;99.90
25983;DHT22;13773;48.868;10.730;2023-06-10T09:04:53;24.70;99.90
25983;DHT22;13773;48.868;10.730;2023-06-10T09:07:21;24.40;99.90
25983;DHT22;13773;48.868;10.730;2023-06-10T09:09:48;24.70;99.90
25983;DHT22;13773;48.868;10.730;2023-06-10T09:12:14;25.10;99.90
25983;DHT22;13773;48.868;10.730;2023-06-10T09:14:42;24.40;99.90
25983;DHT22;13773;48.868;10.730;2023-06-10T09:17:08;24.20;99.90
25983;DHT22;13773;48.868;10.730;2023-06-10T09:19:35;24.30;99.90
25983;DHT22;13773;48.868;10.730;2023-06-10T09:22:02;24.50;99.90
25983;DHT22;13773;48.868;10.730;2023-06-10T09:24:28;24.40;99.90
25983;DHT22;13773;48.868;10.730;2023-06-10T09:27:07;24.50;99.90
25983;DHT22;13773;48.868;10.730;2023-06-10T09:32:12;24.70;99.90
25983;DHT22;13773;48.868;10.730;2023-06-10T09:34:38;25.10;99.90
25983;DHT22;13773;48.868;10.730;2023-06-10T09:37:04;25.00;99.90
25983;DHT22;13773;48.868;10.730;2023-06-10T09:39:29;24.60;99.90
25983;DHT22;13773;48.868;10.730;2023-06-10T09:41:55;25.10;99.90
25983;DHT22;13773;48.868;10.730;2023-06-10T09:44:22;26.00;99.90
25983;DHT22;13773;48.868;10.730;2023-06-10T09:46:49;25.90;99.90
25983;DHT22;13773;48.868;10.730;2023-06-10T09:49:16;25.10;99.90
25983;DHT22;13773;48.868;10.730;2023-06-10T09:51:55;25.90;99.90
25983;DHT22;13773;48.868;10.730;2023-06-10T09:54:21;26.30;99.90
25983;DHT22;13773;48.868;10.730;2023-06-10T09:56:51;26.60;99.90
25983;DHT22;13773;48.868;10.730;2023-06-10T09:59:29;25.40;99.90
25983;DHT22;13773;48.868;10.730;2023-06-10T10:01:57;26.00;99.90
25983;DHT22;13773;48.868;10.730;2023-06-10T10:04:24;25.50;99.90
25983;DHT22;13773;48.868;10.730;2023-06-10T10:06:50;25.40;99.90
25983;DHT22;13773;48.868;10.730;2023-06-10T10:09:16;25.10;99.90
25983;DHT22;13773;48.868;10.730;2023-06-10T10:11:43;25.10;99.90
25983;DHT22;13773;48.868;10.730;2023-06-10T10:14:09;24.60;99.90
25983;DHT22;13773;48.868;10.730;2023-06-10T10:16:41;24.30;99.90
25983;DHT22;13773;48.868;10.730;2023-06-10T10:19:14;23.70;99.90
25983;DHT22;13773;48.868;10.730;2023-06-10T10:21:52;23.30;99.90
25983;DHT22;13773;48.868;10.730;2023-06-10T10:24:23;23.40;99.90
25983;DHT22;13773;48.868;10.730;2023-06-10T10:26:52;23.40;99.90
25983;DHT22;13773;48.868;10.730;2023-06-10T10:29:30;23.80;99.90
25983;DHT22;13773;48.868;10.730;2023-06-10T10:31:56;23.80;99.90
25983;DHT22;13773;48.868;10.730;2023-06-10T10:34:41;23.50;99.90
25983;DHT22;13773;48.868;10.730;2023-06-10T10:37:09;23.10;99.90
25983;DHT22;13773;48.868;10.730;2023-06-10T10:39:35;23.10;99.90
25983;DHT22;13773;48.868;10.730;2023-06-10T10:42:02;23.50;99.90
25983;DHT22;13773;48.868;10.730;2023-06-10T10:44:30;23.80;99.90
25983;DHT22;13773;48.868;10.730;2023-06-10T10:46:56;23.90;99.90
25983;DHT22;13773;48.868;10.730;2023-06-10T10:49:24;24.00;99.90
25983;DHT22;13773;48.868;10.730;2023-06-10T10:51:57;24.20;99.90
25983;DHT22;13773;48.868;10.730;2023-06-10T10:54:34;24.70;99.90
25983;DHT22;13773;48.868;10.730;2023-06-10T10:57:30;25.50;99.90
25983;DHT22;13773;48.868;10.730;2023-06-10T10:59:56;24.80;99.90
25983;DHT22;13773;48.868;10.730;2023-06-10T11:02:44;25.90;99.90
25983;DHT22;13773;48.868;10.730;2023-06-10T11:05:16;25.90;99.90
25983;DHT22;13773;48.868;10.730;2023-06-10T11:07:55;26.30;99.90
25983;DHT22;13773;48.868;10.730;2023-06-10T11:10:29;24.60;99.90
25983;DHT22;13773;48.868;10.730;2023-06-10T11:12:56;23.90;99.90
25983;DHT22;13773;48.868;10.730;2023-06-10T11:15:26;24.00;99.90
25983;DHT22;13773;48.868;10.730;2023-06-10T11:23:32;24.60;99.90
25983;DHT22;13773;48.868;10.730;2023-06-10T11:33:48;25.30;99.90
25983;DHT22;13773;48.868;10.730;2023-06-10T11:36:14;25.40;99.90
25983;DHT22;13773;48.868;10.730;2023-06-10T11:38:44;25.00;99.90
25983;DHT22;13773;48.868;10.730;2023-06-10T11:41:11;24.80;99.90
25983;DHT22;13773;48.868;10.730;2023-06-10T11:43:42;24.50;99.90
25983;DHT22;13773;48.868;10.730;2023-06-10T11:46:08;24.70;99.90
25983;DHT22;13773;48.868;10.730;2023-06-10T11:48:34;24.50;99.90
25983;DHT22;13773;48.868;10.730;2023-06-10T11:51:00;25.20;99.90
25983;DHT22;13773;48.868;10.730;2023-06-10T11:53:25;25.10;99.90
25983;DHT22;13773;48.868;10.730;2023-06-10T11:55:51;24.90;99.90
25983;DHT22;13773;48.868;10.730;2023-06-10T11:58:22;26.10;99.90
25983;DHT22;13773;48.868;10.730;2023-06-10T12:00:54;26.20;99.90
25983;DHT22;13773;48.868;10.730;2023-06-10T12:03:21;25.90;99.90
25983;DHT22;13773;48.868;10.730;2023-06-10T12:06:02;25.70;99.90
25983;DHT22;13773;48.868;10.730;2023-06-10T12:08:28;24.60;99.90
25983;DHT22;13773;48.868;10.730;2023-06-10T12:10:55;24.50;99.90
25983;DHT22;13773;48.868;10.730;2023-06-10T12:13:21;24.40;99.90
25983;DHT22;13773;48.868;10.730;2023-06-10T12:15:47;24.50;99.90
25983;DHT22;13773;48.868;10.730;2023-06-10T12:18:20;24.20;99.90
25983;DHT22;13773;48.868;10.730;2023-06-10T12:20:46;24.20;99.90
25983;DHT22;13773;48.868;10.730;2023-06-10T12:23:12;24.10;99.90
25983;DHT22;13773;48.868;10.730;2023-06-10T12:25:39;24.30;99.90
25983;DHT22;13773;48.868;10.730;2023-06-10T12:28:05;24.30;99.90
25983;DHT22;13773;48.868;10.730;2023-06-10T12:30:34;24.90;99.90
25983;DHT22;13773;48.868;10.730;2023-06-10T12:32:59;24.20;99.90
25983;DHT22;13773;48.868;10.730;2023-06-10T12:35:27;24.00;99.90
25983;DHT22;13773;48.868;10.730;2023-06-10T12:38:06;23.70;99.90
25983;DHT22;13773;48.868;10.730;2023-06-10T12:40:37;24.30;99.90
25983;DHT22;13773;48.868;10.730;2023-06-10T12:43:06;24.70;99.90
25983;DHT22;13773;48.868;10.730;2023-06-10T12:45:36;25.10;99.90
25983;DHT22;13773;48.868;10.730;2023-06-10T12:48:19;25.70;99.90
25983;DHT22;13773;48.868;10.730;2023-06-10T12:50:54;26.60;99.90
25983;DHT22;13773;48.868;10.730;2023-06-10T12:53:20;26.10;99.90
25983;DHT22;13773;48.868;10.730;2023-06-10T12:55:47;26.20;99.90
25983;DHT22;13773;48.868;10.730;2023-06-10T12:58:13;25.80;99.90
25983;DHT22;13773;48.868;10.730;2023-06-10T13:00:39;25.10;99.90
25983;DHT22;13773;48.868;10.730;2023-06-10T13:03:09;24.80;99.90
25983;DHT22;13773;48.868;10.730;2023-06-10T13:05:35;24.40;99.90
25983;DHT22;13773;48.868;10.730;2023-06-10T13:08:07;24.00;99.90
25983;DHT22;13773;48.868;10.730;2023-06-10T13:10:33;24.40;99.90
25983;DHT22;13773;48.868;10.730;2023-06-10T13:13:00;24.00;99.90
25983;DHT22;13773;48.868;10.730;2023-06-10T13:15:27;24.30;99.90
25983;DHT22;13773;48.868;10.730;2023-06-10T13:17:52;25.40;99.90
25983;DHT22;13773;48.868;10.730;2023-06-10T13:20:19;26.60;99.90
25983;DHT22;13773;48.868;10.730;2023-06-10T13:22:46;27.00;99.90
25983;DHT22;13773;48.868;10.730;2023-06-10T13:25:12;27.20;99.90
25983;DHT22;13773;48.868;10.730;2023-06-10T13:27:38;27.20;99.90
25983;DHT22;13773;48.868;10.730;2023-06-10T13:30:09;26.90;99.90
25983;DHT22;13773;48.868;10.730;2023-06-10T13:32:35;27.30;99.90
25983;DHT22;13773;48.868;10.730;2023-06-10T13:35:01;27.50;99.90
25983;DHT22;13773;48.868;10.730;2023-06-10T13:37:28;27.50;99.90
25983;DHT22;13773;48.868;10.730;2023-06-10T13:39:54;27.50;99.90
25983;DHT22;13773;48.868;10.730;2023-06-10T13:42:20;25.70;99.90
25983;DHT22;13773;48.868;10.730;2023-06-10T13:44:47;26.80;99.90
25983;DHT22;13773;48.868;10.730;2023-06-10T13:47:14;26.90;99.90
25983;DHT22;13773;48.868;10.730;2023-06-10T13:49:40;26.60;99.90
25983;DHT22;13773;48.868;10.730;2023-06-10T13:52:06;24.90;99.90
25983;DHT22;13773;48.868;10.730;2023-06-10T13:54:32;24.50;99.90
25983;DHT22;13773;48.868;10.730;2023-06-10T13:56:58;24.20;99.90
25983;DHT22;13773;48.868;10.730;2023-06-10T13:59:25;24.50;99.90
25983;DHT22;13773;48.868;10.730;2023-06-10T14:01:51;25.30;99.90
25983;DHT22;13773;48.868;10.730;2023-06-10T14:04:17;25.30;99.90
25983;DHT22;13773;48.868;10.730;2023-06-10T14:06:43;26.30;99.90
25983;DHT22;13773;48.868;10.730;2023-06-10T14:09:09;26.00;99.90
25983;DHT22;13773;48.868;10.730;2023-06-10T14:11:35;25.50;99.90
25983;DHT22;13773;48.868;10.730;2023-06-10T14:14:00;25.50;99.90
25983;DHT22;13773;48.868;10.730;2023-06-10T14:16:27;25.60;99.90
25983;DHT22;13773;48.868;10.730;2023-06-10T14:18:53;25.80;99.90
25983;DHT22;13773;48.868;10.730;2023-06-10T14:21:19;26.00;99.90
25983;DHT22;13773;48.868;10.730;2023-06-10T14:23:45;25.60;99.90
25983;DHT22;13773;48.868;10.730;2023-06-10T14:26:11;25.40;99.90
25983;DHT22;13773;48.868;10.730;2023-06-10T14:28:37;25.40;99.90
25983;DHT22;13773;48.868;10.730;2023-06-10T14:31:03;25.80;99.90
25983;DHT22;13773;48.868;10.730;2023-06-10T14:33:28;26.30;99.90
25983;DHT22;13773;48.868;10.730;2023-06-10T14:35:54;25.90;99.90
25983;DHT22;13773;48.868;10.730;2023-06-10T14:38:20;26.40;99.90
25983;DHT22;13773;48.868;10.730;2023-06-10T14:40:46;26.80;99.90
25983;DHT22;13773;48.868;10.730;2023-06-10T14:43:11;26.80;99.90
25983;DHT22;13773;48.868;10.730;2023-06-10T14:45:38;26.40;99.90
25983;DHT22;13773;48.868;10.730;2023-06-10T14:48:05;27.10;99.90
25983;DHT22;13773;48.868;10.730;2023-06-10T14:50:31;27.60;99.90
25983;DHT22;13773;48.868;10.730;2023-06-10T14:52:58;26.30;99.90
25983;DHT22;13773;48.868;10.730;2023-06-10T14:55:24;26.30;99.90
25983;DHT22;13773;48.868;10.730;2023-06-10T14:57:49;26.20;99.90
25983;DHT22;13773;48.868;10.730;2023-06-10T15:00:16;26.20;99.90
25983;DHT22;13773;48.868;10.730;2023-06-10T15:02:45;25.10;99.90
25983;DHT22;13773;48.868;10.730;2023-06-10T15:05:17;25.90;99.90
25983;DHT22;13773;48.868;10.730;2023-06-10T15:07:45;26.80;99.90
25983;DHT22;13773;48.868;10.730;2023-06-10T15:10:11;27.60;99.90
25983;DHT22;13773;48.868;10.730;2023-06-10T15:12:37;27.30;99.90
25983;DHT22;13773;48.868;10.730;2023-06-10T15:15:03;27.40;99.90
25983;DHT22;13773;48.868;10.730;2023-06-10T15:17:29;26.30;99.90
25983;DHT22;13773;48.868;10.730;2023-06-10T15:19:55;26.10;99.90
25983;DHT22;13773;48.868;10.730;2023-06-10T15:22:21;26.10;99.90
25983;DHT22;13773;48.868;10.730;2023-06-10T15:24:47;25.30;99.90
25983;DHT22;13773;48.868;10.730;2023-06-10T15:27:13;24.50;99.90
25983;DHT22;13773;48.868;10.730;2023-06-10T15:29:38;24.40;99.90
25983;DHT22;13773;48.868;10.730;2023-06-10T15:32:05;24.50;99.90
25983;DHT22;13773;48.868;10.730;2023-06-10T15:34:30;24.60;99.90
25983;DHT22;13773;48.868;10.730;2023-06-10T15:36:56;24.60;99.90